UAE192 LPPT-OMDB
Flight info
| Callsign | UAE192 |
|---|---|
| Flight time | N/A |
| Altitude | 34000 |
| Route | ORVED DCT RODAP DCT RAKOD DCT UREDI DCT NVS/N0477F330 DCT NANDO/N0477F340 T257 MABUX M871 LASPO Z224 NINES/N0477F330 DCT OLMIR DCT XARON DCT GENIO DCT LUXUR UM134 ANB UG6 DIMAO UL874 LOBNA/N0479F350 UL874 OMENI DCT BONAR M980 LOSUL M855 MMA N705 BOPIX N710 TAKRI M720 FYM M872 BDB Y214 SIKNU/N0483F370 Y214 RAPMA DCT KUVSO DCT KATIT DCT PEKEM M628 RIGIL G783 ELUDA/N0475F350 G783 ASPED Q308 KIPOK Q568 IMPED |
| Aircraft | B77W/H-SDE1E2E3FGHIJ2J3J4J5M1RWXY/LB1D1 |
Departure
| Time | 2026-05-06 13:36 |
|---|---|
| Airport | Lisbon Humberto Delgado Airport (LPPT) |
Arrival
| Time | N/A |
|---|---|
| Airport | Dubai International Airport (OMDB) |
| Time | Latitude | Longitude | Altitude | Speed | Heading |
|---|---|---|---|---|---|
| 2026-05-06 12:42 | 38.77674 | -9.13222 | 387 ft | 0 kts | 120° |
| 2026-05-06 13:24 | 38.77683 | -9.13239 | 387 ft | 2 kts | 137° |
| 2026-05-06 13:24 | 38.77700 | -9.13251 | 387 ft | 2 kts | 167° |
| 2026-05-06 13:25 | 38.77717 | -9.13252 | 387 ft | 2 kts | 191° |
| 2026-05-06 13:25 | 38.77734 | -9.13244 | 387 ft | 2 kts | 217° |
| 2026-05-06 13:25 | 38.77748 | -9.13224 | 387 ft | 2 kts | 246° |
| 2026-05-06 13:25 | 38.77751 | -9.13210 | 387 ft | 1 kts | 260° |
| 2026-05-06 13:26 | 38.77752 | -9.13208 | 387 ft | 0 kts | 259° |
| 2026-05-06 13:29 | 38.77751 | -9.13208 | 387 ft | 0 kts | 259° |
| 2026-05-06 13:29 | 38.77751 | -9.13209 | 387 ft | 0 kts | 259° |
| 2026-05-06 13:30 | 38.77744 | -9.13245 | 387 ft | 7 kts | 256° |
| 2026-05-06 13:30 | 38.77728 | -9.13325 | 387 ft | 10 kts | 252° |
| 2026-05-06 13:30 | 38.77662 | -9.13386 | 387 ft | 13 kts | 200° |
| 2026-05-06 13:30 | 38.77573 | -9.13429 | 387 ft | 13 kts | 201° |
| 2026-05-06 13:31 | 38.77491 | -9.13491 | 387 ft | 13 kts | 215° |
| 2026-05-06 13:31 | 38.77404 | -9.13527 | 387 ft | 13 kts | 173° |
| 2026-05-06 13:31 | 38.77314 | -9.13503 | 387 ft | 7 kts | 175° |
| 2026-05-06 13:31 | 38.77289 | -9.13540 | 387 ft | 6 kts | 256° |
| 2026-05-06 13:32 | 38.77277 | -9.13611 | 387 ft | 9 kts | 257° |
| 2026-05-06 13:32 | 38.77263 | -9.13701 | 387 ft | 11 kts | 259° |
| 2026-05-06 13:32 | 38.77245 | -9.13807 | 387 ft | 13 kts | 253° |
| 2026-05-06 13:32 | 38.77168 | -9.13877 | 387 ft | 15 kts | 202° |
| 2026-05-06 13:33 | 38.77063 | -9.13932 | 387 ft | 17 kts | 203° |
| 2026-05-06 13:33 | 38.76951 | -9.13992 | 387 ft | 16 kts | 203° |
| 2026-05-06 13:33 | 38.76843 | -9.14048 | 387 ft | 14 kts | 201° |
| 2026-05-06 13:33 | 38.76759 | -9.14094 | 387 ft | 12 kts | 205° |
| 2026-05-06 13:34 | 38.76686 | -9.14136 | 387 ft | 10 kts | 203° |
| 2026-05-06 13:34 | 38.76623 | -9.14169 | 387 ft | 9 kts | 202° |
| 2026-05-06 13:34 | 38.76588 | -9.14223 | 387 ft | 7 kts | 275° |
| 2026-05-06 13:34 | 38.76610 | -9.14292 | 387 ft | 8 kts | 293° |
| 2026-05-06 13:35 | 38.76635 | -9.14366 | 387 ft | 9 kts | 292° |
| 2026-05-06 13:35 | 38.76674 | -9.14378 | 387 ft | 7 kts | 24° |
| 2026-05-06 13:35 | 38.76701 | -9.14363 | 387 ft | 9 kts | 23° |
| 2026-05-06 13:35 | 38.76914 | -9.14246 | 387 ft | 65 kts | 23° |
| 2026-05-06 13:36 | 38.77548 | -9.13907 | 387 ft | 128 kts | 22° |
| 2026-05-06 13:36 | 38.78548 | -9.13369 | 406 ft | 179 kts | 21° |
| 2026-05-06 13:36 | 38.79776 | -9.12717 | 886 ft | 192 kts | 20° |
| 2026-05-06 13:36 | 38.81052 | -9.11885 | 1661 ft | 197 kts | 26° |
| 2026-05-06 13:37 | 38.82353 | -9.10913 | 2618 ft | 197 kts | 28° |
| 2026-05-06 13:37 | 38.83625 | -9.09941 | 3050 ft | 207 kts | 28° |
| 2026-05-06 13:37 | 38.85003 | -9.08766 | 3350 ft | 228 kts | 44° |
| 2026-05-06 13:37 | 38.85963 | -9.06841 | 3633 ft | 251 kts | 60° |
| 2026-05-06 13:38 | 38.86847 | -9.04538 | 4215 ft | 261 kts | 61° |
| 2026-05-06 13:38 | 38.87763 | -9.02123 | 4964 ft | 265 kts | 62° |
| 2026-05-06 13:38 | 38.88676 | -8.99716 | 5691 ft | 268 kts | 62° |
| 2026-05-06 13:38 | 38.89594 | -8.97289 | 6435 ft | 270 kts | 62° |
| 2026-05-06 13:39 | 38.90541 | -8.94787 | 7149 ft | 274 kts | 62° |
| 2026-05-06 13:39 | 38.91454 | -8.92371 | 7819 ft | 277 kts | 62° |
| 2026-05-06 13:39 | 38.92432 | -8.89781 | 8532 ft | 280 kts | 63° |
| 2026-05-06 13:39 | 38.93367 | -8.87302 | 9188 ft | 283 kts | 63° |
| 2026-05-06 13:40 | 38.94295 | -8.84840 | 9810 ft | 286 kts | 63° |
| 2026-05-06 13:40 | 38.95224 | -8.82371 | 10294 ft | 295 kts | 63° |
| 2026-05-06 13:40 | 38.96210 | -8.79753 | 10524 ft | 313 kts | 63° |
| 2026-05-06 13:40 | 38.97266 | -8.76945 | 10775 ft | 331 kts | 63° |
| 2026-05-06 13:41 | 38.98380 | -8.73983 | 11049 ft | 348 kts | 63° |
| 2026-05-06 13:41 | 38.99520 | -8.70942 | 11346 ft | 364 kts | 63° |
| 2026-05-06 13:41 | 39.00684 | -8.67838 | 11760 ft | 375 kts | 63° |
| 2026-05-06 13:41 | 39.01879 | -8.64640 | 12357 ft | 381 kts | 63° |
| 2026-05-06 13:42 | 39.03091 | -8.61396 | 13039 ft | 385 kts | 63° |
| 2026-05-06 13:42 | 39.04288 | -8.58187 | 13680 ft | 390 kts | 63° |
| 2026-05-06 13:42 | 39.05500 | -8.54936 | 14323 ft | 396 kts | 63° |
| 2026-05-06 13:42 | 39.06736 | -8.51615 | 14981 ft | 400 kts | 63° |
| 2026-05-06 13:43 | 39.07986 | -8.48254 | 15626 ft | 405 kts | 63° |
| 2026-05-06 13:43 | 39.09246 | -8.44858 | 16276 ft | 410 kts | 63° |
| 2026-05-06 13:43 | 39.10515 | -8.41439 | 16922 ft | 415 kts | 63° |
| 2026-05-06 13:43 | 39.11820 | -8.37912 | 17532 ft | 420 kts | 63° |
| 2026-05-06 13:44 | 39.13164 | -8.34278 | 18193 ft | 424 kts | 64° |
| 2026-05-06 13:44 | 39.14463 | -8.30761 | 18794 ft | 428 kts | 64° |
| 2026-05-06 13:44 | 39.15782 | -8.27184 | 19434 ft | 432 kts | 64° |
| 2026-05-06 13:44 | 39.17111 | -8.23576 | 20061 ft | 435 kts | 64° |
| 2026-05-06 13:45 | 39.18493 | -8.19817 | 20677 ft | 439 kts | 64° |
| 2026-05-06 13:45 | 39.21174 | -8.12511 | 21775 ft | 447 kts | 64° |
| 2026-05-06 13:45 | 39.22563 | -8.08718 | 22345 ft | 451 kts | 64° |
| 2026-05-06 13:46 | 39.23949 | -8.04926 | 22888 ft | 454 kts | 64° |
| 2026-05-06 13:46 | 39.25359 | -8.01065 | 23410 ft | 458 kts | 64° |
| 2026-05-06 13:46 | 39.26752 | -7.97243 | 23895 ft | 462 kts | 64° |
| 2026-05-06 13:46 | 39.28162 | -7.93366 | 24370 ft | 465 kts | 64° |
| 2026-05-06 13:47 | 39.29614 | -7.89371 | 24872 ft | 469 kts | 64° |
| 2026-05-06 13:47 | 39.31060 | -7.85382 | 25311 ft | 472 kts | 64° |
| 2026-05-06 13:47 | 39.32525 | -7.81336 | 25742 ft | 476 kts | 64° |
| 2026-05-06 13:47 | 39.33990 | -7.77281 | 26217 ft | 478 kts | 64° |
| 2026-05-06 13:48 | 39.35460 | -7.73206 | 26638 ft | 482 kts | 64° |
| 2026-05-06 13:48 | 39.36941 | -7.69086 | 27026 ft | 486 kts | 64° |
| 2026-05-06 13:48 | 39.38391 | -7.65038 | 27442 ft | 489 kts | 65° |
| 2026-05-06 13:48 | 39.39946 | -7.61016 | 27875 ft | 491 kts | 60° |
| 2026-05-06 13:49 | 39.41679 | -7.57050 | 28316 ft | 493 kts | 59° |
| 2026-05-06 13:49 | 39.43429 | -7.53053 | 28685 ft | 497 kts | 60° |
| 2026-05-06 13:49 | 39.45177 | -7.49028 | 29042 ft | 501 kts | 60° |
| 2026-05-06 13:49 | 39.46905 | -7.45026 | 29517 ft | 502 kts | 60° |
| 2026-05-06 13:50 | 39.48661 | -7.40939 | 30127 ft | 500 kts | 60° |
| 2026-05-06 13:50 | 39.50405 | -7.36864 | 30759 ft | 497 kts | 60° |
| 2026-05-06 13:50 | 39.52077 | -7.32945 | 31282 ft | 496 kts | 60° |
| 2026-05-06 13:50 | 39.53809 | -7.28875 | 31682 ft | 497 kts | 60° |
| 2026-05-06 13:51 | 39.55537 | -7.24804 | 32029 ft | 498 kts | 60° |
| 2026-05-06 13:51 | 39.57273 | -7.20707 | 32460 ft | 498 kts | 60° |
| 2026-05-06 13:51 | 39.59005 | -7.16612 | 32910 ft | 497 kts | 60° |
| 2026-05-06 13:51 | 39.60713 | -7.12565 | 33338 ft | 496 kts | 60° |
| 2026-05-06 13:52 | 39.62436 | -7.08478 | 33739 ft | 495 kts | 60° |
| 2026-05-06 13:52 | 39.64057 | -7.04230 | 33941 ft | 498 kts | 65° |
| 2026-05-06 13:52 | 39.67012 | -6.95585 | 33958 ft | 496 kts | 65° |
| 2026-05-06 13:53 | 39.69953 | -6.86928 | 33952 ft | 496 kts | 65° |
| 2026-05-06 13:53 | 39.72910 | -6.78206 | 33946 ft | 497 kts | 65° |
| 2026-05-06 13:54 | 39.75816 | -6.69614 | 33957 ft | 498 kts | 65° |
| 2026-05-06 13:54 | 39.78766 | -6.60864 | 33954 ft | 496 kts | 65° |
| 2026-05-06 13:55 | 39.81540 | -6.52605 | 33953 ft | 497 kts | 65° |
| 2026-05-06 13:55 | 39.84354 | -6.44204 | 33957 ft | 496 kts | 65° |
| 2026-05-06 13:56 | 39.87000 | -6.35289 | 33957 ft | 499 kts | 71° |
| 2026-05-06 13:56 | 39.89280 | -6.26061 | 33940 ft | 497 kts | 72° |
| 2026-05-06 13:57 | 39.91535 | -6.16895 | 33945 ft | 498 kts | 72° |
| 2026-05-06 13:57 | 39.93816 | -6.07598 | 33948 ft | 499 kts | 72° |
| 2026-05-06 13:58 | 39.96036 | -5.98517 | 33957 ft | 498 kts | 72° |
| 2026-05-06 13:58 | 39.98204 | -5.89619 | 33956 ft | 498 kts | 72° |
| 2026-05-06 13:59 | 40.00348 | -5.80792 | 33957 ft | 500 kts | 72° |
| 2026-05-06 13:59 | 40.01839 | -5.71749 | 33942 ft | 499 kts | 87° |
| 2026-05-06 14:00 | 40.01966 | -5.62472 | 33954 ft | 500 kts | 90° |
| 2026-05-06 14:00 | 40.02022 | -5.53194 | 33960 ft | 500 kts | 90° |
| 2026-05-06 14:01 | 40.02070 | -5.44000 | 33961 ft | 501 kts | 90° |
| 2026-05-06 14:01 | 40.02110 | -5.34667 | 33961 ft | 501 kts | 91° |
| 2026-05-06 14:02 | 40.02143 | -5.25350 | 33955 ft | 502 kts | 91° |
| 2026-05-06 14:02 | 40.02169 | -5.15954 | 33956 ft | 502 kts | 91° |
| 2026-05-06 14:03 | 40.02187 | -5.06555 | 33956 ft | 503 kts | 91° |
| 2026-05-06 14:03 | 40.02198 | -4.97230 | 33953 ft | 503 kts | 91° |
| 2026-05-06 14:04 | 40.02200 | -4.87904 | 33959 ft | 505 kts | 91° |
| 2026-05-06 14:04 | 40.02195 | -4.78609 | 33957 ft | 504 kts | 91° |
| 2026-05-06 14:05 | 40.02182 | -4.69306 | 33958 ft | 506 kts | 91° |
| 2026-05-06 14:05 | 40.02162 | -4.59929 | 33960 ft | 506 kts | 91° |
| 2026-05-06 14:06 | 40.02134 | -4.50672 | 33959 ft | 507 kts | 91° |
| 2026-05-06 14:06 | 40.02099 | -4.41293 | 33967 ft | 508 kts | 91° |
| 2026-05-06 14:07 | 40.02055 | -4.31980 | 33960 ft | 510 kts | 91° |
| 2026-05-06 14:07 | 40.02004 | -4.22543 | 33956 ft | 509 kts | 91° |
| 2026-05-06 14:08 | 40.01944 | -4.13178 | 33957 ft | 511 kts | 92° |
| 2026-05-06 14:08 | 40.01878 | -4.03801 | 33960 ft | 511 kts | 92° |
| 2026-05-06 14:09 | 40.01801 | -3.94215 | 33964 ft | 512 kts | 92° |
| 2026-05-06 14:09 | 40.01716 | -3.84606 | 33961 ft | 512 kts | 92° |
| 2026-05-06 14:10 | 40.01623 | -3.74984 | 33967 ft | 514 kts | 92° |
| 2026-05-06 14:10 | 40.01523 | -3.65445 | 33968 ft | 514 kts | 92° |
| 2026-05-06 14:11 | 40.01416 | -3.56026 | 33979 ft | 515 kts | 92° |
| 2026-05-06 14:11 | 40.01301 | -3.46603 | 33972 ft | 515 kts | 92° |
| 2026-05-06 14:12 | 40.01177 | -3.37129 | 33970 ft | 516 kts | 92° |
| 2026-05-06 14:12 | 40.01044 | -3.27595 | 33972 ft | 517 kts | 93° |
| 2026-05-06 14:13 | 40.00902 | -3.18006 | 33959 ft | 519 kts | 93° |
| 2026-05-06 14:13 | 40.00751 | -3.08401 | 33956 ft | 518 kts | 93° |
| 2026-05-06 14:14 | 40.00594 | -2.98887 | 33963 ft | 518 kts | 94° |
| 2026-05-06 14:14 | 40.00430 | -2.89451 | 33966 ft | 519 kts | 94° |
| 2026-05-06 14:15 | 40.00255 | -2.79902 | 33967 ft | 519 kts | 94° |
| 2026-05-06 14:15 | 40.00072 | -2.70329 | 33973 ft | 520 kts | 94° |
| 2026-05-06 14:16 | 39.99879 | -2.60742 | 33973 ft | 519 kts | 94° |
| 2026-05-06 14:16 | 39.99678 | -2.51220 | 33979 ft | 520 kts | 94° |
| 2026-05-06 14:17 | 39.99468 | -2.41651 | 33978 ft | 521 kts | 94° |
| 2026-05-06 14:17 | 39.99248 | -2.32091 | 33974 ft | 520 kts | 94° |
| 2026-05-06 14:18 | 39.98846 | -2.22211 | 33966 ft | 517 kts | 102° |
| 2026-05-06 14:18 | 39.96756 | -2.12852 | 33969 ft | 508 kts | 120° |
| 2026-05-06 14:19 | 39.93359 | -2.04463 | 33983 ft | 503 kts | 124° |
| 2026-05-06 14:19 | 39.89842 | -1.96124 | 33982 ft | 506 kts | 124° |
| 2026-05-06 14:20 | 39.86392 | -1.87984 | 33994 ft | 503 kts | 124° |
| 2026-05-06 14:20 | 39.82857 | -1.79684 | 33982 ft | 505 kts | 124° |
| 2026-05-06 14:21 | 39.79361 | -1.71501 | 33983 ft | 503 kts | 124° |
| 2026-05-06 14:21 | 39.75829 | -1.63262 | 33981 ft | 506 kts | 124° |
| 2026-05-06 14:22 | 39.72281 | -1.55005 | 33980 ft | 505 kts | 124° |
| 2026-05-06 14:22 | 39.68733 | -1.46776 | 33988 ft | 505 kts | 124° |
| 2026-05-06 14:23 | 39.65170 | -1.38537 | 33985 ft | 506 kts | 124° |
| 2026-05-06 14:23 | 39.61539 | -1.30163 | 33966 ft | 505 kts | 125° |
| 2026-05-06 14:24 | 39.57850 | -1.21677 | 33969 ft | 505 kts | 125° |
| 2026-05-06 14:24 | 39.54129 | -1.13142 | 33979 ft | 507 kts | 125° |
| 2026-05-06 14:25 | 39.50409 | -1.04640 | 33974 ft | 505 kts | 125° |
| 2026-05-06 14:25 | 39.46670 | -0.96119 | 33975 ft | 508 kts | 125° |
| 2026-05-06 14:26 | 39.42801 | -0.87308 | 33973 ft | 506 kts | 125° |
| 2026-05-06 14:26 | 39.38949 | -0.78540 | 33962 ft | 506 kts | 125° |
| 2026-05-06 14:27 | 39.35166 | -0.69989 | 33956 ft | 504 kts | 125° |
| 2026-05-06 14:27 | 39.31342 | -0.61372 | 33949 ft | 505 kts | 125° |
| 2026-05-06 14:28 | 39.27909 | -0.52419 | 33944 ft | 514 kts | 112° |
| 2026-05-06 14:28 | 39.25860 | -0.42978 | 33940 ft | 517 kts | 109° |
| 2026-05-06 14:29 | 39.23846 | -0.33306 | 33925 ft | 519 kts | 109° |
| 2026-05-06 14:29 | 39.21798 | -0.23529 | 33918 ft | 517 kts | 110° |
| 2026-05-06 14:30 | 39.19770 | -0.13906 | 33925 ft | 516 kts | 110° |
| 2026-05-06 14:30 | 39.17693 | -0.04096 | 33920 ft | 517 kts | 110° |
| 2026-05-06 14:31 | 39.15641 | 0.05553 | 33930 ft | 516 kts | 110° |
| 2026-05-06 14:31 | 39.13522 | 0.15470 | 33928 ft | 516 kts | 109° |
| 2026-05-06 14:32 | 39.11375 | 0.25466 | 33937 ft | 517 kts | 110° |
| 2026-05-06 14:32 | 39.09384 | 0.34701 | 33929 ft | 515 kts | 109° |
| 2026-05-06 14:33 | 39.07409 | 0.43819 | 33937 ft | 517 kts | 109° |
| 2026-05-06 14:33 | 39.05387 | 0.53117 | 33929 ft | 515 kts | 109° |
| 2026-05-06 14:34 | 39.03336 | 0.62510 | 33932 ft | 516 kts | 109° |
| 2026-05-06 14:34 | 39.01317 | 0.71713 | 33923 ft | 515 kts | 110° |
| 2026-05-06 14:35 | 38.99275 | 0.80976 | 33922 ft | 515 kts | 110° |
| 2026-05-06 14:35 | 38.97281 | 0.89983 | 33920 ft | 514 kts | 110° |
| 2026-05-06 14:36 | 38.95297 | 0.98909 | 33923 ft | 515 kts | 110° |
| 2026-05-06 14:36 | 38.93296 | 1.07888 | 33925 ft | 515 kts | 110° |
| 2026-05-06 14:37 | 38.91298 | 1.16816 | 33930 ft | 515 kts | 110° |
| 2026-05-06 14:37 | 38.89260 | 1.25884 | 33937 ft | 514 kts | 110° |
| 2026-05-06 14:38 | 38.87213 | 1.34957 | 33940 ft | 514 kts | 110° |
| 2026-05-06 14:38 | 38.85033 | 1.43908 | 33939 ft | 513 kts | 112° |
| 2026-05-06 14:39 | 38.82687 | 1.53030 | 33940 ft | 512 kts | 112° |
| 2026-05-06 14:39 | 38.80378 | 1.62022 | 33940 ft | 512 kts | 112° |
| 2026-05-06 14:40 | 38.78022 | 1.71191 | 33925 ft | 512 kts | 112° |
| 2026-05-06 14:40 | 38.75633 | 1.80468 | 33927 ft | 511 kts | 112° |
| 2026-05-06 14:41 | 38.73221 | 1.89801 | 33925 ft | 512 kts | 112° |
| 2026-05-06 14:41 | 38.70765 | 1.99275 | 33924 ft | 511 kts | 112° |
| 2026-05-06 14:42 | 38.68454 | 2.08157 | 33927 ft | 512 kts | 112° |
| 2026-05-06 14:42 | 38.66046 | 2.16941 | 33918 ft | 507 kts | 118° |
| 2026-05-06 14:43 | 38.62929 | 2.25469 | 33930 ft | 506 kts | 120° |
| 2026-05-06 14:43 | 38.59740 | 2.34055 | 33929 ft | 506 kts | 120° |
| 2026-05-06 14:44 | 38.56412 | 2.42992 | 33933 ft | 506 kts | 120° |
| 2026-05-06 14:45 | 38.51639 | 2.55773 | 33931 ft | 507 kts | 120° |
| 2026-05-06 14:45 | 38.48187 | 2.64984 | 33908 ft | 517 kts | 119° |
| 2026-05-06 14:45 | 38.46455 | 2.69597 | 33616 ft | 520 kts | 120° |
| 2026-05-06 14:46 | 38.44823 | 2.73942 | 33328 ft | 517 kts | 120° |
| 2026-05-06 14:46 | 38.43240 | 2.78150 | 33055 ft | 515 kts | 120° |
| 2026-05-06 14:46 | 38.41618 | 2.82452 | 32927 ft | 514 kts | 120° |
| 2026-05-06 14:47 | 38.38242 | 2.91392 | 32927 ft | 518 kts | 120° |
| 2026-05-06 14:47 | 38.35039 | 2.99858 | 32934 ft | 517 kts | 120° |
| 2026-05-06 14:48 | 38.31815 | 3.08354 | 32927 ft | 516 kts | 120° |
| 2026-05-06 14:48 | 38.28782 | 3.16765 | 32935 ft | 519 kts | 114° |
| 2026-05-06 14:49 | 38.26264 | 3.25362 | 32930 ft | 519 kts | 114° |
| 2026-05-06 14:49 | 38.23760 | 3.33936 | 32930 ft | 519 kts | 114° |
| 2026-05-06 14:50 | 38.21235 | 3.42543 | 32931 ft | 520 kts | 114° |
| 2026-05-06 14:50 | 38.18614 | 3.51048 | 32932 ft | 517 kts | 115° |
| 2026-05-06 14:51 | 38.15980 | 3.59472 | 32935 ft | 517 kts | 115° |
| 2026-05-06 14:51 | 38.13317 | 3.67979 | 32920 ft | 517 kts | 116° |
| 2026-05-06 14:52 | 38.10664 | 3.76432 | 32928 ft | 517 kts | 116° |
| 2026-05-06 14:52 | 38.08001 | 3.84900 | 32929 ft | 516 kts | 116° |
| 2026-05-06 14:53 | 38.05284 | 3.93510 | 32928 ft | 516 kts | 115° |
| 2026-05-06 14:53 | 38.02432 | 4.02526 | 32927 ft | 515 kts | 116° |
| 2026-05-06 14:54 | 37.99559 | 4.11575 | 32920 ft | 515 kts | 116° |
| 2026-05-06 14:54 | 37.96685 | 4.20602 | 32930 ft | 515 kts | 115° |
| 2026-05-06 14:55 | 37.93730 | 4.29852 | 32927 ft | 516 kts | 115° |
| 2026-05-06 14:55 | 37.90662 | 4.39428 | 32928 ft | 515 kts | 115° |
| 2026-05-06 14:56 | 37.87747 | 4.48493 | 32941 ft | 516 kts | 115° |
| 2026-05-06 14:56 | 37.85021 | 4.56945 | 32945 ft | 516 kts | 115° |
| 2026-05-06 14:57 | 37.82300 | 4.65358 | 32929 ft | 516 kts | 116° |
| 2026-05-06 14:57 | 37.79591 | 4.73708 | 32920 ft | 515 kts | 116° |
| 2026-05-06 14:58 | 37.76827 | 4.82204 | 32920 ft | 516 kts | 116° |
| 2026-05-06 14:58 | 37.73941 | 4.91049 | 32921 ft | 515 kts | 116° |
| 2026-05-06 14:59 | 37.71211 | 4.99387 | 32925 ft | 517 kts | 115° |
| 2026-05-06 14:59 | 37.68617 | 5.07894 | 32922 ft | 517 kts | 113° |
| 2026-05-06 15:00 | 37.66116 | 5.16367 | 32934 ft | 518 kts | 113° |
| 2026-05-06 15:00 | 37.63601 | 5.24831 | 32919 ft | 516 kts | 114° |
| 2026-05-06 15:01 | 37.61076 | 5.33286 | 32923 ft | 515 kts | 114° |
| 2026-05-06 15:01 | 37.58555 | 5.41688 | 32911 ft | 516 kts | 114° |
| 2026-05-06 15:02 | 37.55992 | 5.50197 | 32925 ft | 519 kts | 114° |
| 2026-05-06 15:02 | 37.53448 | 5.58621 | 32923 ft | 515 kts | 114° |
| 2026-05-06 15:03 | 37.50898 | 5.67031 | 32909 ft | 517 kts | 115° |
| 2026-05-06 15:03 | 37.48260 | 5.75707 | 32899 ft | 515 kts | 115° |
| 2026-05-06 15:04 | 37.45617 | 5.84368 | 32915 ft | 515 kts | 115° |
| 2026-05-06 15:04 | 37.42924 | 5.93171 | 32917 ft | 514 kts | 115° |
| 2026-05-06 15:05 | 37.40295 | 6.01732 | 32914 ft | 517 kts | 115° |
| 2026-05-06 15:05 | 37.37710 | 6.10128 | 32917 ft | 514 kts | 115° |
| 2026-05-06 15:06 | 37.34870 | 6.19321 | 32920 ft | 513 kts | 115° |
| 2026-05-06 15:06 | 37.32202 | 6.27928 | 32912 ft | 516 kts | 115° |
| 2026-05-06 15:07 | 37.29344 | 6.37126 | 32925 ft | 513 kts | 115° |
| 2026-05-06 15:07 | 37.26612 | 6.45887 | 32918 ft | 513 kts | 115° |
| 2026-05-06 15:08 | 37.23855 | 6.54701 | 32928 ft | 514 kts | 115° |
| 2026-05-06 15:08 | 37.21134 | 6.63371 | 32951 ft | 516 kts | 115° |
| 2026-05-06 15:09 | 37.18480 | 6.71806 | 32925 ft | 514 kts | 115° |
| 2026-05-06 15:09 | 37.15777 | 6.80371 | 32918 ft | 511 kts | 116° |
| 2026-05-06 15:10 | 37.13136 | 6.88712 | 32912 ft | 513 kts | 116° |
| 2026-05-06 15:10 | 37.10480 | 6.97077 | 32933 ft | 514 kts | 115° |
| 2026-05-06 15:11 | 37.07848 | 7.05343 | 32930 ft | 511 kts | 115° |
| 2026-05-06 15:11 | 37.05197 | 7.13642 | 32928 ft | 514 kts | 115° |
| 2026-05-06 15:12 | 37.02348 | 7.22540 | 32932 ft | 514 kts | 115° |
| 2026-05-06 15:12 | 37.00010 | 7.29819 | 32933 ft | 512 kts | 115° |